Time;durP1;ratioP1;P1;durP2;ratioP2;P2;SDS_P1;SDS_P2;PMS_P1;PMS_P2;Temp;Humidity;BMP_temperature;BMP_pressure;BME280_temperature;BME280_humidity;BME280_pressure;Samples;Min_cycle;Max_cycle;Signal;HPM_P1;HPM_P2
2021/08/19 00:01:40;;;;;;;2.80;2.60;;;15.60;99.90;;;;;;483849;246;29179;-69
2021/08/19 00:03:41;;;;;;;2.83;2.60;;;15.60;99.90;;;;;;483868;246;29388;-72
2021/08/19 00:05:42;;;;;;;2.93;2.70;;;15.60;99.90;;;;;;483883;246;29273;-72
2021/08/19 00:07:43;;;;;;;3.00;2.70;;;15.60;99.90;;;;;;483854;246;28707;-69
2021/08/19 00:09:45;;;;;;;3.47;3.17;;;15.60;99.90;;;;;;483869;246;28730;-70
2021/08/19 00:11:46;;;;;;;2.50;2.30;;;15.60;99.90;;;;;;483850;246;28796;-70
2021/08/19 00:13:47;;;;;;;5.33;2.73;;;15.60;99.90;;;;;;483879;246;28799;-69
2021/08/19 00:15:50;;;;;;;2.70;2.30;;;15.60;99.90;;;;;;483871;246;28688;-72
2021/08/19 00:17:50;;;;;;;3.90;2.87;;;15.60;99.90;;;;;;483782;246;28719;-70
2021/08/19 00:19:51;;;;;;;2.80;2.60;;;15.50;99.90;;;;;;483861;246;28802;-70
2021/08/19 00:21:52;;;;;;;2.70;2.50;;;15.60;99.90;;;;;;483833;246;28727;-72
2021/08/19 00:23:53;;;;;;;2.20;2.10;;;15.60;99.90;;;;;;483877;246;28715;-70
2021/08/19 00:25:55;;;;;;;2.50;2.30;;;15.60;99.90;;;;;;483824;246;29219;-69
2021/08/19 00:27:56;;;;;;;2.50;2.30;;;15.60;99.90;;;;;;483688;246;29292;-70
2021/08/19 00:29:57;;;;;;;2.23;2.03;;;15.60;99.90;;;;;;483866;246;29269;-71
2021/08/19 00:31:58;;;;;;;2.63;2.43;;;15.60;99.90;;;;;;483862;246;28792;-71
2021/08/19 00:34:00;;;;;;;3.63;2.90;;;15.50;99.90;;;;;;483859;246;28731;-72
2021/08/19 00:36:01;;;;;;;3.17;2.93;;;15.60;99.90;;;;;;483858;246;28679;-69
2021/08/19 00:38:02;;;;;;;2.90;2.70;;;15.60;99.90;;;;;;483808;246;28714;-69
2021/08/19 00:40:03;;;;;;;3.40;2.73;;;15.60;99.90;;;;;;483796;246;28865;-71
2021/08/19 00:42:05;;;;;;;2.60;2.40;;;15.60;99.90;;;;;;483780;246;28770;-72
2021/08/19 00:44:06;;;;;;;2.90;2.70;;;15.60;99.90;;;;;;483821;246;28741;-71
2021/08/19 00:46:07;;;;;;;2.80;2.60;;;15.60;99.90;;;;;;483828;246;28773;-71
2021/08/19 00:48:08;;;;;;;2.67;2.47;;;15.60;99.90;;;;;;483826;246;28934;-69
2021/08/19 00:50:10;;;;;;;2.77;2.57;;;15.50;99.90;;;;;;483827;246;29214;-70
2021/08/19 00:52:11;;;;;;;4.37;2.97;;;15.60;99.90;;;;;;483825;246;29302;-70
2021/08/19 00:54:12;;;;;;;3.20;2.90;;;15.60;99.90;;;;;;483857;246;29288;-70
2021/08/19 00:56:13;;;;;;;3.43;3.13;;;15.60;99.90;;;;;;483854;246;29248;-72
2021/08/19 00:58:15;;;;;;;3.40;3.10;;;15.50;99.90;;;;;;483869;246;28716;-71
2021/08/19 01:00:16;;;;;;;3.23;3.00;;;15.50;99.90;;;;;;483844;246;28783;-70
2021/08/19 01:02:17;;;;;;;3.10;2.87;;;15.50;99.90;;;;;;483852;246;28763;-71
2021/08/19 01:04:18;;;;;;;2.53;2.33;;;15.50;99.90;;;;;;483883;246;29163;-71
2021/08/19 01:06:20;;;;;;;3.40;3.10;;;15.50;99.90;;;;;;483881;246;28798;-71
2021/08/19 01:08:21;;;;;;;4.13;3.73;;;15.50;99.90;;;;;;483880;246;28763;-71
2021/08/19 01:10:22;;;;;;;3.20;3.00;;;15.50;99.90;;;;;;483892;246;28771;-70
2021/08/19 01:12:23;;;;;;;3.33;3.10;;;15.50;99.90;;;;;;483876;246;28731;-70
2021/08/19 01:14:25;;;;;;;3.30;3.00;;;15.50;99.90;;;;;;483873;246;29282;-69
2021/08/19 01:16:28;;;;;;;3.20;3.00;;;15.50;99.90;;;;;;483872;246;29171;-72
2021/08/19 01:18:27;;;;;;;3.47;3.17;;;15.50;99.90;;;;;;483791;246;29274;-71
2021/08/19 01:20:28;;;;;;;3.30;3.00;;;15.50;99.90;;;;;;483886;246;29248;-71
2021/08/19 01:22:30;;;;;;;4.53;3.20;;;15.50;99.90;;;;;;483845;246;28731;-72
2021/08/19 01:24:31;;;;;;;3.53;3.20;;;15.50;99.90;;;;;;483890;246;28727;-70
2021/08/19 01:26:32;;;;;;;3.40;3.10;;;15.50;99.90;;;;;;483858;246;28762;-69
2021/08/19 01:28:33;;;;;;;5.50;3.47;;;15.50;99.90;;;;;;483859;246;28716;-69
2021/08/19 01:30:35;;;;;;;4.37;3.97;;;15.40;99.90;;;;;;483846;246;28858;-70
2021/08/19 01:32:36;;;;;;;3.30;3.00;;;15.40;99.90;;;;;;483853;246;28744;-72
2021/08/19 01:34:37;;;;;;;3.60;3.30;;;15.40;99.90;;;;;;483881;246;29064;-69
2021/08/19 01:36:38;;;;;;;5.40;2.60;;;15.40;99.90;;;;;;483862;246;28752;-70
2021/08/19 01:38:40;;;;;;;3.57;3.27;;;15.40;99.90;;;;;;483868;246;29200;-70
2021/08/19 01:40:41;;;;;;;3.97;2.90;;;15.40;99.90;;;;;;483842;246;29143;-70
2021/08/19 01:42:42;;;;;;;3.10;2.90;;;15.40;99.90;;;;;;483860;246;29276;-71
2021/08/19 01:44:43;;;;;;;4.40;3.13;;;15.40;99.90;;;;;;483868;246;29202;-72
2021/08/19 01:46:45;;;;;;;2.73;2.53;;;15.40;99.90;;;;;;483860;246;28812;-72
2021/08/19 01:48:46;;;;;;;3.80;3.50;;;15.40;99.90;;;;;;483871;246;28699;-71
2021/08/19 01:50:47;;;;;;;3.43;3.13;;;15.40;99.90;;;;;;483859;246;28771;-70
2021/08/19 01:52:48;;;;;;;3.60;3.30;;;15.40;99.90;;;;;;483699;246;28718;-71
2021/08/19 01:54:50;;;;;;;6.87;3.00;;;15.40;99.90;;;;;;483826;246;28908;-70
2021/08/19 01:56:51;;;;;;;4.87;3.60;;;15.40;99.90;;;;;;483805;246;29180;-71
2021/08/19 01:58:56;;;;;;;3.33;3.03;;;15.40;99.90;;;;;;483774;246;28736;-70
2021/08/19 02:00:53;;;;;;;4.07;3.77;;;15.40;99.90;;;;;;483417;246;28810;-70
2021/08/19 02:02:55;;;;;;;4.03;3.57;;;15.40;99.90;;;;;;483847;246;28741;-69
2021/08/19 02:04:56;;;;;;;3.77;3.47;;;15.40;99.90;;;;;;483862;246;29311;-69
2021/08/19 02:06:57;;;;;;;3.47;3.17;;;15.40;99.90;;;;;;483854;246;29325;-69
2021/08/19 02:08:58;;;;;;;3.40;3.00;;;15.40;99.90;;;;;;483852;246;29279;-69
2021/08/19 02:11:00;;;;;;;3.37;3.07;;;15.40;99.90;;;;;;483859;246;28695;-69
2021/08/19 02:13:01;;;;;;;3.10;2.60;;;15.40;99.90;;;;;;483821;246;28696;-69
2021/08/19 02:15:02;;;;;;;3.57;3.30;;;15.40;99.90;;;;;;483833;246;28739;-71
2021/08/19 02:17:03;;;;;;;3.67;3.30;;;15.40;99.90;;;;;;483847;246;28680;-69
2021/08/19 02:19:05;;;;;;;4.87;3.37;;;15.40;99.90;;;;;;483873;246;28839;-69
2021/08/19 02:21:06;;;;;;;3.00;2.80;;;15.40;99.90;;;;;;483840;246;28692;-71
2021/08/19 02:23:07;;;;;;;4.60;3.87;;;15.40;99.90;;;;;;483829;246;28750;-72
2021/08/19 02:25:08;;;;;;;4.03;3.37;;;15.40;99.90;;;;;;483836;246;28720;-72
2021/08/19 02:27:10;;;;;;;3.97;3.47;;;15.30;99.90;;;;;;483839;246;28691;-71
2021/08/19 02:29:11;;;;;;;4.33;3.60;;;15.30;99.90;;;;;;483861;246;29216;-71
2021/08/19 02:31:12;;;;;;;3.30;3.00;;;15.30;99.90;;;;;;483740;246;30175;-72
2021/08/19 02:33:13;;;;;;;4.53;3.10;;;15.40;99.90;;;;;;483864;246;29239;-72
2021/08/19 02:35:15;;;;;;;2.80;2.60;;;15.40;99.90;;;;;;483874;246;28759;-72
2021/08/19 02:37:16;;;;;;;4.47;3.40;;;15.40;99.90;;;;;;483886;246;28481;-72
2021/08/19 02:39:17;;;;;;;3.30;3.00;;;15.40;99.90;;;;;;483862;246;28748;-70
2021/08/19 02:41:18;;;;;;;3.13;2.93;;;15.40;99.90;;;;;;483889;246;28688;-70
2021/08/19 02:43:20;;;;;;;3.47;3.17;;;15.40;99.90;;;;;;483872;246;28691;-70
2021/08/19 02:45:21;;;;;;;4.50;3.53;;;15.40;99.90;;;;;;483796;246;28811;-70
2021/08/19 02:47:22;;;;;;;3.00;2.80;;;15.40;99.90;;;;;;483815;246;28692;-70
2021/08/19 02:49:23;;;;;;;4.70;3.27;;;15.40;99.90;;;;;;483873;246;28790;-70
2021/08/19 02:51:25;;;;;;;3.13;2.93;;;15.30;99.90;;;;;;483839;246;29129;-70
2021/08/19 02:53:26;;;;;;;3.77;3.23;;;15.30;99.90;;;;;;483845;246;29243;-70
2021/08/19 02:55:27;;;;;;;9.30;4.07;;;15.30;99.90;;;;;;483865;246;29272;-69
2021/08/19 02:57:28;;;;;;;4.27;3.87;;;15.20;99.90;;;;;;483869;246;29233;-71
2021/08/19 02:59:30;;;;;;;3.97;3.60;;;15.20;99.90;;;;;;483867;246;28814;-69
2021/08/19 03:01:31;;;;;;;4.07;3.67;;;15.20;99.90;;;;;;483879;246;28720;-69
2021/08/19 03:03:32;;;;;;;5.10;4.23;;;15.20;99.90;;;;;;483853;246;28755;-70
2021/08/19 03:05:33;;;;;;;4.43;4.03;;;15.10;99.90;;;;;;483845;246;28814;-71
2021/08/19 03:07:35;;;;;;;4.47;3.83;;;15.10;99.90;;;;;;483834;246;28874;-72
2021/08/19 03:09:36;;;;;;;3.63;3.33;;;15.10;99.90;;;;;;483851;246;28856;-72
2021/08/19 03:11:37;;;;;;;4.27;3.70;;;15.00;99.90;;;;;;483849;246;29095;-71
2021/08/19 03:13:38;;;;;;;4.90;3.90;;;15.10;99.90;;;;;;483846;246;28861;-70
2021/08/19 03:15:40;;;;;;;3.83;3.53;;;15.10;99.90;;;;;;483869;246;28852;-71
2021/08/19 03:17:41;;;;;;;5.53;3.50;;;15.10;99.90;;;;;;483865;246;29148;-70
2021/08/19 03:19:42;;;;;;;3.23;2.97;;;15.10;99.90;;;;;;483848;246;29286;-71
2021/08/19 03:21:44;;;;;;;3.57;3.27;;;15.10;99.90;;;;;;483857;246;29193;-71
2021/08/19 03:23:45;;;;;;;3.43;3.13;;;15.10;99.90;;;;;;483844;246;28434;-71
2021/08/19 03:25:46;;;;;;;3.57;3.27;;;15.10;99.90;;;;;;483863;246;28335;-71
2021/08/19 03:27:47;;;;;;;3.80;3.50;;;15.10;99.90;;;;;;483832;246;28779;-72
2021/08/19 03:29:49;;;;;;;4.03;3.63;;;15.10;99.90;;;;;;483844;246;28445;-71
2021/08/19 03:31:50;;;;;;;3.50;3.20;;;15.00;99.90;;;;;;483863;246;28800;-71
2021/08/19 03:33:51;;;;;;;3.67;3.37;;;15.10;99.90;;;;;;483853;246;28677;-71
2021/08/19 03:35:53;;;;;;;3.33;3.10;;;15.10;99.90;;;;;;483773;246;28717;-70
2021/08/19 03:37:54;;;;;;;3.60;3.30;;;15.10;99.90;;;;;;483787;246;28763;-71
2021/08/19 03:39:55;;;;;;;4.20;3.17;;;15.00;99.90;;;;;;483834;246;28751;-71
2021/08/19 03:41:56;;;;;;;3.07;2.80;;;15.00;99.90;;;;;;483857;246;29203;-72
2021/08/19 03:43:57;;;;;;;2.97;2.77;;;15.10;99.90;;;;;;483838;246;28836;-72
2021/08/19 03:45:59;;;;;;;3.23;2.80;;;15.10;99.90;;;;;;483827;246;29290;-72
2021/08/19 03:48:00;;;;;;;3.13;2.73;;;15.00;99.90;;;;;;483851;246;29153;-70
2021/08/19 03:50:01;;;;;;;3.03;2.73;;;15.00;99.90;;;;;;483839;246;28789;-71
2021/08/19 03:52:02;;;;;;;3.40;3.10;;;15.00;99.90;;;;;;483854;246;28741;-70
2021/08/19 03:54:04;;;;;;;2.50;2.37;;;15.10;99.90;;;;;;483846;246;28755;-69
2021/08/19 03:56:05;;;;;;;3.00;2.80;;;15.10;99.90;;;;;;483829;246;28750;-69
2021/08/19 03:58:06;;;;;;;2.63;2.43;;;15.00;99.90;;;;;;483836;246;28703;-69
2021/08/19 04:00:07;;;;;;;2.60;2.40;;;15.00;99.90;;;;;;483852;246;28885;-70
2021/08/19 04:02:10;;;;;;;3.17;2.87;;;15.00;99.90;;;;;;483843;246;28726;-69
2021/08/19 04:04:11;;;;;;;3.43;3.03;;;15.10;99.90;;;;;;483850;246;28715;-69
2021/08/19 04:06:12;;;;;;;3.17;2.87;;;15.00;99.90;;;;;;483821;246;28698;-70
2021/08/19 04:08:13;;;;;;;2.50;2.30;;;15.00;99.90;;;;;;483841;246;29327;-70
2021/08/19 04:10:15;;;;;;;2.67;2.47;;;15.10;99.90;;;;;;483864;246;29715;-70
2021/08/19 04:12:16;;;;;;;3.70;2.90;;;15.00;99.90;;;;;;483863;246;29169;-71
2021/08/19 04:14:17;;;;;;;2.70;2.50;;;15.10;99.90;;;;;;483816;246;28743;-70
2021/08/19 04:16:18;;;;;;;2.40;2.30;;;15.00;99.90;;;;;;483841;246;28689;-69
2021/08/19 04:18:20;;;;;;;2.80;2.60;;;15.00;99.90;;;;;;483780;246;28810;-70
2021/08/19 04:20:22;;;;;;;3.17;2.90;;;15.00;99.90;;;;;;483851;246;28730;-72
2021/08/19 04:22:23;;;;;;;4.33;2.73;;;15.00;99.90;;;;;;483826;246;28740;-70
2021/08/19 04:24:24;;;;;;;6.03;3.17;;;15.00;99.90;;;;;;483829;246;28714;-69
2021/08/19 04:26:27;;;;;;;4.10;2.40;;;15.00;99.90;;;;;;483861;246;29235;-71
2021/08/19 04:28:27;;;;;;;3.37;2.80;;;15.00;99.90;;;;;;483797;246;30077;-71
2021/08/19 04:30:28;;;;;;;2.80;2.60;;;15.00;99.90;;;;;;483854;246;29147;-71
2021/08/19 04:32:29;;;;;;;2.97;2.43;;;15.00;99.90;;;;;;483854;246;28806;-72
2021/08/19 04:34:31;;;;;;;3.33;2.57;;;15.00;99.90;;;;;;483847;246;28675;-72
2021/08/19 04:36:32;;;;;;;3.17;2.97;;;15.00;99.90;;;;;;483831;246;28728;-72
2021/08/19 04:38:33;;;;;;;3.53;3.10;;;15.00;99.90;;;;;;483854;246;28688;-70
2021/08/19 04:40:34;;;;;;;2.70;2.50;;;15.00;99.90;;;;;;483860;246;28791;-70
2021/08/19 04:42:36;;;;;;;3.10;2.80;;;15.00;99.90;;;;;;483868;246;28523;-72
2021/08/19 04:44:37;;;;;;;4.90;3.27;;;15.00;99.90;;;;;;483864;246;28707;-71
2021/08/19 04:46:38;;;;;;;3.13;2.90;;;15.00;99.90;;;;;;483877;246;28760;-69
2021/08/19 04:48:39;;;;;;;4.30;3.90;;;15.00;99.90;;;;;;483855;246;30029;-70
2021/08/19 04:50:41;;;;;;;4.53;3.57;;;15.00;99.90;;;;;;483843;246;29178;-69
2021/08/19 04:52:42;;;;;;;3.80;3.40;;;15.00;99.90;;;;;;483882;246;29296;-69
2021/08/19 04:54:43;;;;;;;4.50;3.83;;;15.00;99.90;;;;;;483863;246;29237;-70
2021/08/19 04:56:44;;;;;;;5.20;4.10;;;15.00;99.90;;;;;;483872;246;28728;-69
2021/08/19 04:58:46;;;;;;;5.03;4.50;;;15.00;99.90;;;;;;483789;246;28727;-70
2021/08/19 05:00:47;;;;;;;4.40;4.00;;;15.00;99.90;;;;;;483829;246;28731;-69
2021/08/19 05:02:48;;;;;;;3.43;3.13;;;15.00;99.90;;;;;;483876;246;28830;-69
2021/08/19 05:04:49;;;;;;;4.60;4.10;;;15.00;99.90;;;;;;483828;246;28744;-69
2021/08/19 05:06:51;;;;;;;3.50;3.20;;;15.00;99.90;;;;;;483895;246;28898;-72
2021/08/19 05:08:52;;;;;;;4.40;4.00;;;15.00;99.90;;;;;;483827;246;28708;-71
2021/08/19 05:10:53;;;;;;;4.30;3.90;;;15.00;99.90;;;;;;483848;246;28806;-70
2021/08/19 05:12:54;;;;;;;3.70;3.40;;;15.10;99.90;;;;;;483864;246;29343;-71
2021/08/19 05:14:56;;;;;;;3.87;3.57;;;15.10;99.90;;;;;;483876;246;29287;-72
2021/08/19 05:16:57;;;;;;;4.20;3.80;;;15.10;99.90;;;;;;483857;246;29197;-69
2021/08/19 05:18:58;;;;;;;3.60;3.30;;;15.00;99.90;;;;;;483847;246;29161;-70
2021/08/19 05:20:59;;;;;;;4.90;4.23;;;15.10;99.90;;;;;;483827;246;28685;-69
2021/08/19 05:23:01;;;;;;;4.30;3.90;;;15.10;99.90;;;;;;483864;246;28800;-69
2021/08/19 05:25:02;;;;;;;3.73;3.43;;;15.10;99.90;;;;;;483858;246;28378;-69
2021/08/19 05:27:03;;;;;;;3.63;3.33;;;15.20;99.90;;;;;;483857;246;28708;-70
2021/08/19 05:29:04;;;;;;;4.87;3.73;;;15.20;99.90;;;;;;483840;246;28765;-71
2021/08/19 05:31:06;;;;;;;4.23;3.83;;;15.30;99.90;;;;;;483859;246;28735;-72
2021/08/19 05:33:07;;;;;;;3.63;3.33;;;15.20;99.90;;;;;;483856;246;28724;-70
2021/08/19 05:35:08;;;;;;;4.70;3.67;;;15.20;99.90;;;;;;483843;246;28680;-70
2021/08/19 05:37:10;;;;;;;4.63;4.23;;;15.20;99.90;;;;;;483854;246;29349;-70
2021/08/19 05:39:11;;;;;;;3.70;3.40;;;15.30;99.90;;;;;;483862;246;29478;-70
2021/08/19 05:41:12;;;;;;;3.57;3.27;;;15.30;99.90;;;;;;483880;246;29280;-70
2021/08/19 05:43:13;;;;;;;3.20;3.00;;;15.30;99.90;;;;;;483869;246;29210;-72
2021/08/19 05:45:14;;;;;;;3.67;3.37;;;15.40;99.90;;;;;;483874;246;28680;-72
2021/08/19 05:47:16;;;;;;;3.60;3.30;;;15.40;99.90;;;;;;483785;246;28747;-71
2021/08/19 05:49:17;;;;;;;3.50;3.20;;;15.40;99.90;;;;;;483804;246;28800;-70
2021/08/19 05:51:18;;;;;;;3.93;3.53;;;15.40;99.90;;;;;;483890;246;28684;-70
2021/08/19 05:53:19;;;;;;;4.00;3.67;;;15.40;99.90;;;;;;483785;246;28728;-71
2021/08/19 05:55:21;;;;;;;3.63;3.30;;;15.40;99.90;;;;;;483876;246;28791;-69
2021/08/19 05:57:22;;;;;;;3.27;2.97;;;15.40;99.90;;;;;;483835;246;28728;-71
2021/08/19 05:59:23;;;;;;;3.60;3.30;;;15.50;99.90;;;;;;483894;246;28840;-72
2021/08/19 06:01:24;;;;;;;3.43;3.13;;;15.50;99.90;;;;;;483878;246;28684;-71
2021/08/19 06:03:26;;;;;;;3.60;2.70;;;15.40;99.90;;;;;;483854;244;29331;-71
2021/08/19 06:05:27;;;;;;;3.40;3.10;;;15.40;99.90;;;;;;483827;246;29362;-72
2021/08/19 06:07:28;;;;;;;2.67;2.47;;;15.40;99.90;;;;;;483837;246;29293;-71
2021/08/19 06:09:29;;;;;;;3.10;2.90;;;15.40;99.90;;;;;;483856;246;28720;-69
2021/08/19 06:11:31;;;;;;;3.23;3.00;;;15.50;99.90;;;;;;483849;246;28663;-70
2021/08/19 06:13:32;;;;;;;3.33;3.13;;;15.40;99.90;;;;;;483842;246;28878;-70
2021/08/19 06:15:33;;;;;;;3.53;3.30;;;15.40;99.90;;;;;;483815;246;28690;-69
2021/08/19 06:17:34;;;;;;;3.67;3.37;;;15.40;99.90;;;;;;483829;246;28693;-70
2021/08/19 06:19:36;;;;;;;3.70;3.40;;;15.40;99.90;;;;;;483849;246;28810;-69
2021/08/19 06:21:37;;;;;;;4.40;4.00;;;15.40;99.90;;;;;;483823;246;28705;-70
2021/08/19 06:23:38;;;;;;;4.50;4.00;;;15.40;99.90;;;;;;483834;246;28756;-70
2021/08/19 06:25:39;;;;;;;5.30;4.40;;;15.40;99.90;;;;;;483843;246;29160;-69
2021/08/19 06:27:41;;;;;;;4.07;3.70;;;15.40;99.90;;;;;;483824;246;29188;-69
2021/08/19 06:29:42;;;;;;;4.17;3.77;;;15.40;99.90;;;;;;483847;246;29265;-70
2021/08/19 06:31:43;;;;;;;5.17;4.67;;;15.50;99.90;;;;;;483855;246;29244;-71
2021/08/19 06:33:44;;;;;;;7.60;4.77;;;15.40;99.90;;;;;;483761;246;28799;-72
2021/08/19 06:35:46;;;;;;;5.70;4.80;;;15.40;99.90;;;;;;483855;246;28802;-69
2021/08/19 06:37:47;;;;;;;6.20;5.60;;;15.30;99.90;;;;;;483780;246;28727;-69
2021/08/19 06:39:48;;;;;;;6.97;5.60;;;15.30;99.90;;;;;;483589;246;28727;-69
2021/08/19 06:41:50;;;;;;;7.13;5.50;;;15.40;99.90;;;;;;483831;246;28706;-69
2021/08/19 06:43:51;;;;;;;6.30;5.70;;;15.30;99.90;;;;;;483836;246;28729;-71
2021/08/19 06:45:52;;;;;;;6.80;6.10;;;15.30;99.90;;;;;;483852;246;28696;-71
2021/08/19 06:47:53;;;;;;;7.20;6.00;;;15.40;99.90;;;;;;483834;246;28738;-72
2021/08/19 06:49:55;;;;;;;6.80;5.40;;;15.40;99.90;;;;;;483835;246;28786;-72
2021/08/19 06:51:56;;;;;;;5.83;5.27;;;15.40;99.90;;;;;;483841;246;29326;-70
2021/08/19 06:53:57;;;;;;;7.23;5.57;;;15.40;99.90;;;;;;483835;246;29203;-71
2021/08/19 06:55:58;;;;;;;7.07;6.30;;;15.40;99.90;;;;;;483869;246;29972;-70
2021/08/19 06:58:00;;;;;;;7.90;6.63;;;15.40;99.90;;;;;;483870;246;28770;-69
2021/08/19 07:00:01;;;;;;;9.33;7.17;;;15.40;99.90;;;;;;483849;246;28745;-72
2021/08/19 07:02:02;;;;;;;7.57;6.70;;;15.40;99.90;;;;;;483835;246;28882;-71
2021/08/19 07:04:03;;;;;;;7.30;5.97;;;15.40;99.90;;;;;;483832;246;28824;-72
2021/08/19 07:06:05;;;;;;;8.13;6.40;;;15.50;99.90;;;;;;483862;246;28705;-71
2021/08/19 07:08:06;;;;;;;7.17;5.77;;;15.50;99.90;;;;;;483844;246;28749;-72
2021/08/19 07:10:07;;;;;;;7.20;6.17;;;15.50;99.90;;;;;;483840;246;28745;-72
2021/08/19 07:12:08;;;;;;;7.33;6.53;;;15.50;99.90;;;;;;483834;246;28686;-71
2021/08/19 07:14:10;;;;;;;11.60;6.70;;;15.60;99.90;;;;;;483825;246;28817;-71
2021/08/19 07:16:11;;;;;;;8.73;7.00;;;15.60;99.90;;;;;;483842;246;29928;-72
2021/08/19 07:18:12;;;;;;;7.80;6.07;;;15.60;99.90;;;;;;483848;246;29235;-69
2021/08/19 07:20:13;;;;;;;8.00;6.60;;;15.60;99.90;;;;;;483871;246;29208;-70
2021/08/19 07:22:15;;;;;;;6.60;6.00;;;15.60;99.90;;;;;;483861;246;28692;-69
2021/08/19 07:24:16;;;;;;;7.57;6.20;;;15.60;99.90;;;;;;483834;246;28777;-69
2021/08/19 07:26:21;;;;;;;9.33;7.20;;;15.60;99.90;;;;;;483857;246;28741;-71
2021/08/19 07:28:18;;;;;;;7.43;5.90;;;15.70;99.90;;;;;;483544;246;28700;-72
2021/08/19 07:30:20;;;;;;;6.27;5.67;;;15.60;99.90;;;;;;483859;246;28734;-71
2021/08/19 07:32:21;;;;;;;8.80;7.07;;;15.60;99.90;;;;;;483843;246;28702;-70
2021/08/19 07:34:22;;;;;;;8.20;6.90;;;15.60;99.90;;;;;;483837;246;28803;-69
2021/08/19 07:36:23;;;;;;;8.33;6.90;;;15.60;99.90;;;;;;483849;246;28787;-69
2021/08/19 07:38:25;;;;;;;8.00;6.50;;;15.60;99.90;;;;;;483862;246;28695;-70
2021/08/19 07:40:26;;;;;;;8.10;6.10;;;15.60;99.90;;;;;;483849;246;29204;-72
2021/08/19 07:42:27;;;;;;;9.67;7.03;;;15.60;99.90;;;;;;483825;246;29158;-72
2021/08/19 07:44:28;;;;;;;7.47;6.27;;;15.70;99.90;;;;;;483826;246;29259;-71
2021/08/19 07:46:30;;;;;;;7.20;5.73;;;15.60;99.90;;;;;;483828;246;28749;-70
2021/08/19 07:48:31;;;;;;;7.73;6.73;;;15.70;99.90;;;;;;483877;246;28706;-69
2021/08/19 07:50:32;;;;;;;11.07;7.10;;;15.70;99.90;;;;;;483832;246;28810;-70
2021/08/19 07:52:33;;;;;;;8.73;6.50;;;15.70;99.90;;;;;;483824;246;28792;-70
2021/08/19 07:54:35;;;;;;;7.57;6.73;;;15.80;99.90;;;;;;483838;246;28735;-70
2021/08/19 07:56:36;;;;;;;7.53;6.70;;;15.80;99.90;;;;;;483856;246;28813;-70
2021/08/19 07:58:37;;;;;;;7.83;6.03;;;15.80;99.90;;;;;;483839;246;28793;-72
2021/08/19 08:00:38;;;;;;;7.83;6.47;;;15.80;99.90;;;;;;483841;246;28729;-69
2021/08/19 08:02:40;;;;;;;7.23;6.20;;;15.80;99.90;;;;;;483811;246;28702;-69
2021/08/19 08:04:41;;;;;;;7.90;7.10;;;15.90;99.90;;;;;;483802;246;29163;-69
2021/08/19 08:06:44;;;;;;;8.47;6.57;;;15.90;99.90;;;;;;483842;246;29298;-69
2021/08/19 08:08:43;;;;;;;8.57;6.47;;;15.90;99.90;;;;;;483721;246;28684;-69
2021/08/19 08:10:45;;;;;;;8.73;6.60;;;15.90;99.90;;;;;;483850;246;28727;-70
2021/08/19 08:12:46;;;;;;;7.63;6.40;;;16.00;99.90;;;;;;483836;246;28824;-71
2021/08/19 08:14:47;;;;;;;8.87;6.67;;;15.90;99.90;;;;;;483834;246;28745;-72
2021/08/19 08:16:48;;;;;;;6.70;6.10;;;16.00;99.90;;;;;;483778;246;28787;-69
2021/08/19 08:18:50;;;;;;;8.30;7.10;;;15.90;99.90;;;;;;483845;246;28790;-70
2021/08/19 08:20:51;;;;;;;10.20;6.73;;;15.90;99.90;;;;;;483862;246;28734;-69
2021/08/19 08:22:53;;;;;;;6.83;5.90;;;16.00;99.90;;;;;;483855;246;29257;-70
2021/08/19 08:24:53;;;;;;;6.77;5.83;;;16.00;99.90;;;;;;483830;246;29184;-70
2021/08/19 08:26:55;;;;;;;6.90;5.93;;;16.00;99.90;;;;;;483867;246;29302;-69
2021/08/19 08:28:57;;;;;;;6.80;6.10;;;16.10;99.90;;;;;;483843;246;28737;-69
2021/08/19 08:30:57;;;;;;;6.03;5.43;;;16.20;99.90;;;;;;483738;246;28750;-71
2021/08/19 08:32:58;;;;;;;7.53;6.00;;;16.30;99.90;;;;;;483829;246;28693;-71
2021/08/19 08:35:00;;;;;;;6.63;5.87;;;16.30;99.90;;;;;;483859;246;28712;-71
2021/08/19 08:37:01;;;;;;;5.73;5.10;;;16.40;99.90;;;;;;483859;246;28860;-71
2021/08/19 08:39:04;;;;;;;5.20;4.60;;;16.40;99.90;;;;;;483826;246;28688;-69
2021/08/19 08:41:03;;;;;;;6.27;4.77;;;16.50;99.90;;;;;;483633;246;28732;-72
2021/08/19 08:43:05;;;;;;;5.80;5.20;;;16.50;99.90;;;;;;483772;246;28803;-70
2021/08/19 08:45:06;;;;;;;6.30;4.60;;;16.50;99.90;;;;;;483816;246;28728;-70
2021/08/19 08:47:08;;;;;;;5.37;4.87;;;16.60;99.90;;;;;;483831;246;29187;-69
2021/08/19 08:49:08;;;;;;;6.13;4.93;;;16.60;99.90;;;;;;483761;246;29150;-69
2021/08/19 08:51:10;;;;;;;5.27;4.77;;;16.50;99.90;;;;;;483783;246;29248;-71
2021/08/19 08:53:11;;;;;;;4.90;4.40;;;16.50;99.90;;;;;;483817;246;28761;-69
2021/08/19 08:55:12;;;;;;;6.00;5.03;;;16.60;99.90;;;;;;483852;246;28720;-69
2021/08/19 08:57:13;;;;;;;5.13;4.63;;;16.70;99.90;;;;;;483885;246;28745;-72
2021/08/19 08:59:15;;;;;;;5.73;5.13;;;16.70;99.90;;;;;;483873;246;28841;-71
2021/08/19 09:01:16;;;;;;;5.20;4.40;;;16.80;99.90;;;;;;483864;246;28815;-71
2021/08/19 09:03:17;;;;;;;5.00;4.50;;;16.80;99.90;;;;;;483880;246;28721;-71
2021/08/19 09:05:18;;;;;;;5.63;4.80;;;16.90;99.90;;;;;;483927;246;28693;-71
2021/08/19 09:07:20;;;;;;;5.23;4.73;;;16.90;99.90;;;;;;483883;246;28790;-71
2021/08/19 09:09:21;;;;;;;5.07;4.50;;;17.00;99.90;;;;;;483867;246;29188;-71
2021/08/19 09:11:22;;;;;;;5.13;4.63;;;17.00;99.90;;;;;;483884;246;29211;-71
2021/08/19 09:13:23;;;;;;;5.30;4.80;;;17.00;99.90;;;;;;483859;246;29923;-71
2021/08/19 09:15:25;;;;;;;5.70;4.63;;;17.00;99.90;;;;;;483880;246;29162;-71
2021/08/19 09:17:26;;;;;;;4.83;4.40;;;17.10;99.90;;;;;;483866;246;28751;-71
2021/08/19 09:19:27;;;;;;;5.03;4.60;;;17.30;99.90;;;;;;483878;246;28676;-72
2021/08/19 09:21:28;;;;;;;4.60;4.20;;;17.50;99.90;;;;;;483854;246;28728;-71
2021/08/19 09:23:30;;;;;;;4.57;4.10;;;17.60;99.90;;;;;;483840;246;28807;-71
2021/08/19 09:25:31;;;;;;;6.37;5.23;;;17.50;99.90;;;;;;483864;246;28713;-71
2021/08/19 09:27:32;;;;;;;5.47;4.97;;;17.50;99.90;;;;;;483857;246;28822;-71
2021/08/19 09:29:33;;;;;;;4.23;3.83;;;17.50;99.90;;;;;;483831;246;28688;-71
2021/08/19 09:31:35;;;;;;;4.53;4.13;;;17.60;99.90;;;;;;483846;246;28732;-71
2021/08/19 09:33:36;;;;;;;4.97;4.07;;;17.80;99.90;;;;;;483870;246;28740;-71
2021/08/19 09:35:37;;;;;;;4.83;4.00;;;17.90;99.90;;;;;;483868;246;29239;-71
2021/08/19 09:37:38;;;;;;;4.10;3.73;;;18.10;99.90;;;;;;483871;246;29290;-71
2021/08/19 09:39:40;;;;;;;3.93;3.63;;;18.10;99.90;;;;;;483857;246;29144;-72
2021/08/19 09:41:41;;;;;;;4.10;3.70;;;18.10;99.90;;;;;;483857;246;28800;-72
2021/08/19 09:43:42;;;;;;;3.87;3.57;;;17.90;99.90;;;;;;483723;246;28716;-71
2021/08/19 09:45:44;;;;;;;3.90;3.60;;;17.80;99.90;;;;;;483605;246;28786;-71
2021/08/19 09:47:45;;;;;;;4.77;4.30;;;17.70;99.90;;;;;;483833;246;28780;-71
2021/08/19 09:49:46;;;;;;;3.90;3.47;;;17.50;99.90;;;;;;483853;246;28791;-71
2021/08/19 09:51:47;;;;;;;4.30;4.00;;;17.40;99.90;;;;;;483831;246;28812;-71
2021/08/19 09:53:49;;;;;;;3.87;3.50;;;17.40;99.90;;;;;;483855;246;28704;-71
2021/08/19 09:55:50;;;;;;;4.40;4.00;;;17.40;99.90;;;;;;483868;246;28767;-71
2021/08/19 09:57:51;;;;;;;3.90;3.60;;;17.20;99.90;;;;;;483845;246;28803;-71
2021/08/19 09:59:52;;;;;;;3.70;3.40;;;17.20;99.90;;;;;;483855;246;29149;-70
2021/08/19 10:01:53;;;;;;;4.00;3.70;;;17.30;99.90;;;;;;483867;246;29275;-71
2021/08/19 10:03:55;;;;;;;3.93;3.63;;;17.40;99.90;;;;;;483870;246;30078;-71
2021/08/19 10:05:56;;;;;;;3.53;3.23;;;17.40;99.90;;;;;;483863;246;28785;-71
2021/08/19 10:07:57;;;;;;;4.03;3.63;;;17.40;99.90;;;;;;483866;246;28708;-71
2021/08/19 10:09:58;;;;;;;3.73;3.43;;;17.50;99.90;;;;;;483855;246;28741;-71
2021/08/19 10:12:00;;;;;;;4.40;3.60;;;17.60;99.90;;;;;;483837;246;28744;-71
2021/08/19 10:14:01;;;;;;;3.80;3.50;;;17.70;99.90;;;;;;483825;246;28716;-71
2021/08/19 10:16:02;;;;;;;3.80;3.50;;;17.60;99.90;;;;;;483876;246;28761;-71
2021/08/19 10:18:03;;;;;;;3.70;3.40;;;17.60;99.90;;;;;;483885;246;28724;-71
2021/08/19 10:20:05;;;;;;;3.47;3.17;;;17.60;99.90;;;;;;483880;246;28753;-71
2021/08/19 10:22:06;;;;;;;3.70;3.40;;;17.60;99.90;;;;;;483801;246;28830;-71
2021/08/19 10:24:07;;;;;;;3.77;3.47;;;17.80;99.90;;;;;;483829;246;30256;-71
2021/08/19 10:26:08;;;;;;;3.53;3.23;;;17.90;99.90;;;;;;483869;246;29209;-71
2021/08/19 10:28:10;;;;;;;3.97;3.67;;;18.10;99.90;;;;;;483853;246;29197;-72
2021/08/19 10:30:11;;;;;;;3.13;2.93;;;18.30;99.90;;;;;;483872;246;28695;-71